createdAt,value
2022-12-15T00:00:43.475Z,20.79999924
2022-12-15T00:01:44.761Z,22.79999924
2022-12-15T00:02:45.411Z,19.10000038
2022-12-15T00:03:45.927Z,21
2022-12-15T00:04:46.485Z,21
2022-12-15T00:05:49.816Z,20.60000038
2022-12-15T00:06:48.255Z,19
2022-12-15T00:07:48.779Z,22.60000038
2022-12-15T00:08:49.300Z,19.39999962
2022-12-15T00:09:49.945Z,23.39999962
2022-12-15T00:10:50.493Z,22.89999962
2022-12-15T00:11:51.740Z,23
2022-12-15T00:12:52.483Z,21.39999962
2022-12-15T00:13:53.151Z,20.79999924
2022-12-15T00:14:53.685Z,23.39999962
2022-12-15T00:15:54.479Z,22.29999924
2022-12-15T00:16:54.910Z,21.70000076
2022-12-15T00:17:55.441Z,25.20000076
2022-12-15T00:18:56.308Z,18.89999962
2022-12-15T00:19:56.859Z,19.39999962
2022-12-15T00:20:57.483Z,21.20000076
2022-12-15T00:21:58.757Z,20.89999962
2022-12-15T00:22:59.371Z,20.89999962
2022-12-15T00:23:59.955Z,22.89999962
2022-12-15T00:25:00.438Z,18.39999962
2022-12-15T00:26:01.601Z,21.60000038
2022-12-15T00:27:02.163Z,22.70000076
2022-12-15T00:28:02.759Z,21.89999962
2022-12-15T00:29:03.400Z,20.5
2022-12-15T00:30:04.903Z,19.5
2022-12-15T00:31:05.558Z,21.29999924
2022-12-15T00:32:06.939Z,21.70000076
2022-12-15T00:33:38.063Z,20.5
2022-12-15T00:34:38.620Z,21.39999962
2022-12-15T00:35:39.201Z,20.10000038
2022-12-15T00:36:39.831Z,22.79999924
2022-12-15T00:37:40.332Z,20.89999962
2022-12-15T00:38:40.832Z,20.5
2022-12-15T00:39:41.325Z,22.10000038
2022-12-15T00:40:41.883Z,24.89999962
2022-12-15T00:41:42.452Z,21.60000038
2022-12-15T00:42:43.478Z,22.29999924
2022-12-15T00:43:44.031Z,19.79999924
2022-12-15T00:44:44.572Z,19.39999962
2022-12-15T00:45:45.210Z,19.89999962
2022-12-15T00:46:45.926Z,20.70000076
2022-12-15T00:47:46.293Z,22.79999924
2022-12-15T00:48:46.835Z,20
2022-12-15T00:49:47.342Z,21
2022-12-15T00:50:47.932Z,21.39999962
2022-12-15T00:51:48.573Z,22.20000076
2022-12-15T00:52:49.999Z,21.70000076
2022-12-15T00:53:50.561Z,21.39999962
2022-12-15T00:54:51.083Z,20.60000038
2022-12-15T00:55:51.604Z,20.5
2022-12-15T00:56:52.171Z,20.79999924
2022-12-15T00:57:53.483Z,19
2022-12-15T00:58:54.089Z,17.39999962
2022-12-15T00:59:54.555Z,17.79999924
2022-12-15T01:00:55.134Z,19.39999962
2022-12-15T01:01:55.906Z,21.10000038
2022-12-15T01:02:57.177Z,19.5
2022-12-15T01:03:57.765Z,18.5
2022-12-15T01:04:58.200Z,19.10000038
2022-12-15T01:05:58.730Z,19.89999962
2022-12-15T01:06:59.287Z,18.29999924
2022-12-15T01:07:59.780Z,21.10000038
2022-12-15T01:09:00.426Z,17.5
2022-12-15T01:10:00.934Z,19.60000038
2022-12-15T01:11:01.505Z,18
2022-12-15T01:12:02.071Z,19.79999924
2022-12-15T01:13:02.530Z,18.89999962
2022-12-15T01:14:03.085Z,17.70000076
2022-12-15T01:15:03.699Z,15.39999962
2022-12-15T01:16:05.141Z,16.70000076
2022-12-15T01:17:06.157Z,17.29999924
2022-12-15T01:18:36.857Z,18.10000038
2022-12-15T01:19:37.461Z,18.60000038
2022-12-15T01:20:38.077Z,18.70000076
2022-12-15T01:21:38.734Z,18.29999924
2022-12-15T01:22:40.038Z,16.70000076
2022-12-15T01:23:40.604Z,19.29999924
2022-12-15T01:24:41.976Z,17.10000038
2022-12-15T01:25:42.604Z,18.5
2022-12-15T01:26:43.083Z,25.29999924
2022-12-15T01:27:43.669Z,17.89999962
2022-12-15T01:28:44.178Z,19.10000038
2022-12-15T01:29:44.745Z,18.20000076
2022-12-15T01:30:45.345Z,19.10000038
2022-12-15T01:31:46.170Z,20.60000038
2022-12-15T01:32:47.576Z,16.5
2022-12-15T01:33:48.144Z,19
2022-12-15T01:34:48.705Z,18.79999924
2022-12-15T01:35:49.296Z,17.70000076
2022-12-15T01:36:49.917Z,17.5
2022-12-15T01:37:51.175Z,19.10000038
2022-12-15T01:38:54.227Z,18.20000076
2022-12-15T01:39:53.162Z,15.69999981
2022-12-15T01:40:53.852Z,18
2022-12-15T01:41:54.407Z,19.10000038
2022-12-15T01:42:55.658Z,20.39999962
2022-12-15T01:43:56.164Z,17.39999962
2022-12-15T01:44:56.742Z,19.39999962
2022-12-15T01:45:57.282Z,19.70000076
2022-12-15T01:46:57.824Z,15.89999962
2022-12-15T01:47:58.572Z,19.89999962
2022-12-15T01:48:59.128Z,18.10000038
2022-12-15T01:49:59.690Z,17.70000076
2022-12-15T01:51:00.261Z,18.79999924
2022-12-15T01:52:00.769Z,17.70000076
2022-12-15T01:53:02.396Z,18.29999924
2022-12-15T01:54:02.922Z,18.10000038
2022-12-15T01:55:03.404Z,18.39999962
2022-12-15T01:56:03.958Z,19.60000038
2022-12-15T01:57:04.471Z,17
2022-12-15T01:58:05.114Z,17.70000076
2022-12-15T01:59:36.096Z,20
2022-12-15T02:00:36.762Z,21.60000038
2022-12-15T02:01:37.440Z,17.39999962
2022-12-15T02:02:40.554Z,17.60000038
2022-12-15T02:03:39.483Z,21.29999924
2022-12-15T02:04:39.949Z,20.5
2022-12-15T02:05:40.659Z,22.10000038
2022-12-15T02:06:41.204Z,21.89999962
2022-12-15T02:07:42.610Z,23.39999962
2022-12-15T02:08:43.160Z,22.20000076
2022-12-15T02:09:43.780Z,25.89999962
2022-12-15T02:10:44.359Z,27
2022-12-15T02:11:44.926Z,30.20000076
2022-12-15T02:12:46.167Z,30.39999962
2022-12-15T02:13:49.708Z,29.20000076
2022-12-15T02:14:48.263Z,26.89999962
2022-12-15T02:15:48.839Z,88.09999847
2022-12-15T02:16:49.352Z,112.3000031
2022-12-15T02:17:49.981Z,103.0999985
2022-12-15T02:18:50.581Z,48.40000153
2022-12-15T02:19:51.232Z,63.70000076
2022-12-15T02:20:51.748Z,90.90000153
2022-12-15T02:21:52.557Z,135.6999969
2022-12-15T02:22:53.723Z,102.4000015
2022-12-15T02:23:54.428Z,89.30000305
2022-12-15T02:24:55.132Z,52.90000153
2022-12-15T02:25:55.648Z,50.59999847
2022-12-15T02:26:56.217Z,89
2022-12-15T02:27:56.760Z,80.19999695
2022-12-15T02:28:57.336Z,91.30000305
2022-12-15T02:29:57.873Z,81
2022-12-15T02:30:58.443Z,110.6999969
2022-12-15T02:31:59.168Z,74
2022-12-15T02:33:00.251Z,65.30000305
2022-12-15T02:34:00.815Z,44.79999924
2022-12-15T02:35:01.457Z,61.20000076
2022-12-15T02:36:02.074Z,38.59999847
2022-12-15T02:37:02.699Z,87.19999695
2022-12-15T02:38:03.304Z,71.5
2022-12-15T02:39:03.895Z,49.29999924
2022-12-15T02:40:04.390Z,57
2022-12-15T02:41:36.481Z,103.1999969
2022-12-15T02:42:37.051Z,132.1000061
2022-12-15T02:43:38.493Z,156.5
2022-12-15T02:44:39.089Z,117
2022-12-15T02:45:39.711Z,69.5
2022-12-15T02:46:40.157Z,62.70000076
2022-12-15T02:47:40.705Z,54.20000076
2022-12-15T02:48:41.211Z,74.69999695
2022-12-15T02:49:41.799Z,52.70000076
2022-12-15T02:50:42.405Z,59.5
2022-12-15T02:51:42.884Z,47.5
2022-12-15T02:52:43.436Z,49.59999847
2022-12-15T02:53:44.976Z,44.90000153
2022-12-15T02:54:45.521Z,34.59999847
2022-12-15T02:55:46.075Z,43
2022-12-15T02:56:46.552Z,33.20000076
2022-12-15T02:57:47.102Z,36.20000076
2022-12-15T02:58:47.654Z,35.40000153
2022-12-15T02:59:48.164Z,39.59999847
2022-12-15T03:00:48.791Z,40.59999847
2022-12-15T03:01:49.468Z,38.79999924
2022-12-15T03:02:50.622Z,59.20000076
2022-12-15T03:03:52.079Z,44.20000076
2022-12-15T03:04:52.894Z,57.09999847
2022-12-15T03:05:53.465Z,48.70000076
2022-12-15T03:07:00.410Z,35.59999847
2022-12-15T03:07:54.584Z,31.79999924
2022-12-15T03:08:55.127Z,36.70000076
2022-12-15T03:09:55.636Z,35
2022-12-15T03:10:56.250Z,41.40000153
2022-12-15T03:11:56.754Z,45.40000153
2022-12-15T03:12:58.233Z,31.20000076
2022-12-15T03:13:58.821Z,49.29999924
2022-12-15T03:14:59.372Z,35.59999847
2022-12-15T03:15:59.980Z,29.29999924
2022-12-15T03:17:00.458Z,36.40000153
2022-12-15T03:18:00.937Z,46.40000153
2022-12-15T03:19:01.538Z,52.70000076
2022-12-15T03:20:02.097Z,47
2022-12-15T03:21:02.646Z,33
2022-12-15T03:22:03.219Z,43.20000076
2022-12-15T03:23:04.305Z,27.89999962
2022-12-15T03:24:35.119Z,67.69999695
2022-12-15T03:25:35.730Z,42.59999847
2022-12-15T03:26:36.276Z,30.20000076
2022-12-15T03:27:37.467Z,44.70000076
2022-12-15T03:28:37.999Z,35
2022-12-15T03:29:38.502Z,26
2022-12-15T03:30:39.151Z,29.89999962
2022-12-15T03:31:39.731Z,30.60000038
2022-12-15T03:32:40.189Z,33.29999924
2022-12-15T03:33:41.584Z,32.09999847
2022-12-15T03:34:42.117Z,30.29999924
2022-12-15T03:35:42.673Z,29.29999924
2022-12-15T03:36:43.141Z,21.70000076
2022-12-15T03:37:43.661Z,24.29999924
2022-12-15T03:38:44.181Z,20.20000076
2022-12-15T03:39:44.677Z,26
2022-12-15T03:40:45.335Z,23.39999962
2022-12-15T03:41:45.783Z,26.20000076
2022-12-15T03:42:46.348Z,32.59999847
2022-12-15T03:43:49.632Z,25.39999962
2022-12-15T03:44:48.043Z,25.89999962
2022-12-15T03:45:48.673Z,22.79999924
2022-12-15T03:46:49.088Z,30.5
2022-12-15T03:47:49.593Z,24.29999924
2022-12-15T03:48:50.139Z,22.20000076
2022-12-15T03:49:50.654Z,18.10000038
2022-12-15T03:50:51.302Z,19.39999962
2022-12-15T03:51:51.775Z,26.60000038
2022-12-15T03:52:52.537Z,28.5
2022-12-15T03:53:53.973Z,41.20000076
2022-12-15T03:54:54.492Z,46.20000076
2022-12-15T03:55:55.173Z,36.79999924
2022-12-15T03:56:55.572Z,35.29999924
2022-12-15T03:57:56.068Z,36.59999847
2022-12-15T03:58:56.628Z,29.39999962
2022-12-15T03:59:57.180Z,37.70000076
2022-12-15T04:00:57.818Z,50.20000076
2022-12-15T04:01:58.228Z,31.39999962
2022-12-15T04:02:58.880Z,27.5
2022-12-15T04:04:01.149Z,22.39999962
2022-12-15T04:05:00.531Z,25.79999924
2022-12-15T04:06:01.160Z,40.20000076
2022-12-15T04:07:01.662Z,20.60000038
2022-12-15T04:08:02.827Z,32.5
2022-12-15T04:09:03.439Z,43.20000076
2022-12-15T04:10:35.110Z,31.29999924
2022-12-15T04:11:34.991Z,37.90000153
2022-12-15T04:12:35.506Z,57.29999924
2022-12-15T04:13:36.817Z,30.89999962
2022-12-15T04:14:37.375Z,22.89999962
2022-12-15T04:15:37.890Z,29.60000038
2022-12-15T04:16:38.599Z,29.29999924
2022-12-15T04:17:39.007Z,33.59999847
2022-12-15T04:18:39.550Z,26.39999962
2022-12-15T04:19:40.073Z,72
2022-12-15T04:20:40.592Z,38.29999924
2022-12-15T04:21:41.227Z,47.5
2022-12-15T04:22:41.741Z,38
2022-12-15T04:23:42.789Z,29.89999962
2022-12-15T04:24:43.331Z,27
2022-12-15T04:25:43.827Z,31.89999962
2022-12-15T04:26:44.453Z,35.20000076
2022-12-15T04:27:44.904Z,42.09999847
2022-12-15T04:28:45.475Z,48.09999847
2022-12-15T04:29:45.999Z,21.70000076
2022-12-15T04:30:46.626Z,24.70000076
2022-12-15T04:31:48.115Z,47.70000076
2022-12-15T04:32:49.832Z,50.29999924
2022-12-15T04:33:49.802Z,93.09999847
2022-12-15T04:34:50.356Z,87.40000153
2022-12-15T04:35:50.870Z,36.90000153
2022-12-15T04:36:51.481Z,82.19999695
2022-12-15T04:37:51.933Z,87
2022-12-15T04:38:52.636Z,35.79999924
2022-12-15T04:39:53.110Z,49.59999847
2022-12-15T04:40:53.628Z,50.59999847
2022-12-15T04:41:54.171Z,45.70000076
2022-12-15T04:42:54.670Z,76.5
2022-12-15T04:43:56.224Z,35.5
2022-12-15T04:44:56.682Z,76.80000305
2022-12-15T04:45:57.283Z,72.40000153
2022-12-15T04:46:57.799Z,44.09999847
2022-12-15T04:47:58.240Z,72
2022-12-15T04:48:58.797Z,56.20000076
2022-12-15T04:49:59.325Z,25.79999924
2022-12-15T04:50:59.869Z,36.09999847
2022-12-15T04:52:00.565Z,28.70000076
2022-12-15T04:53:01.052Z,29.79999924
2022-12-15T04:54:02.552Z,53.40000153
2022-12-15T04:55:04.230Z,33.09999847
2022-12-15T04:56:35.120Z,47.29999924
2022-12-15T04:57:35.633Z,32.70000076
2022-12-15T04:58:36.241Z,36.70000076
2022-12-15T04:59:36.804Z,26.29999924
2022-12-15T05:00:37.341Z,24.10000038
2022-12-15T05:01:37.928Z,22.70000076
2022-12-15T05:02:38.538Z,44
2022-12-15T05:03:39.739Z,70.30000305
2022-12-15T05:04:40.383Z,30.39999962
2022-12-15T05:05:41.714Z,77.30000305
2022-12-15T05:06:42.271Z,68.09999847
2022-12-15T05:07:42.805Z,74.69999695
2022-12-15T05:08:43.345Z,39.40000153
2022-12-15T05:09:43.830Z,79.30000305
2022-12-15T05:10:44.633Z,44.20000076
2022-12-15T05:11:45.206Z,61.59999847
2022-12-15T05:12:45.806Z,43.09999847
2022-12-15T05:13:47.222Z,56.79999924
2022-12-15T05:14:49.557Z,63.70000076
2022-12-15T05:15:48.489Z,58.09999847
2022-12-15T05:16:49.004Z,41.59999847
2022-12-15T05:17:49.618Z,54.90000153
2022-12-15T05:18:50.116Z,61.20000076
2022-12-15T05:19:50.660Z,46.79999924
2022-12-15T05:20:51.205Z,41.5
2022-12-15T05:21:51.727Z,54.79999924
2022-12-15T05:23:22.591Z,55.5
2022-12-15T05:24:54.244Z,50.59999847
2022-12-15T05:25:55.721Z,42.79999924
2022-12-15T05:26:56.323Z,31.5
2022-12-15T05:27:56.807Z,26.89999962
2022-12-15T05:28:57.328Z,31.29999924
2022-12-15T05:29:57.914Z,18.39999962
2022-12-15T05:30:59.276Z,12.30000019
2022-12-15T05:31:59.722Z,11.39999962
2022-12-15T05:33:00.208Z,53.20000076
2022-12-15T05:34:05.391Z,37.70000076
2022-12-15T05:35:02.309Z,23.89999962
2022-12-15T05:36:33.417Z,28.10000038
2022-12-15T05:37:33.939Z,21.89999962
2022-12-15T05:38:34.462Z,17.10000038
2022-12-15T05:39:35.616Z,8
2022-12-15T05:40:36.083Z,32.40000153
2022-12-15T05:41:36.597Z,51.70000076
2022-12-15T05:42:37.148Z,24.70000076
2022-12-15T05:43:37.638Z,24.60000038
2022-12-15T05:44:39.125Z,15
2022-12-15T05:45:39.651Z,23.29999924
2022-12-15T05:46:40.312Z,21.10000038
2022-12-15T05:47:40.834Z,18.89999962
2022-12-15T05:48:41.305Z,17.60000038
2022-12-15T05:49:41.898Z,21.60000038
2022-12-15T05:50:42.383Z,19.89999962
2022-12-15T05:51:42.941Z,41.09999847
2022-12-15T05:52:49.015Z,23.29999924
2022-12-15T05:53:44.004Z,20.89999962
2022-12-15T05:54:45.492Z,18.79999924
2022-12-15T05:55:45.965Z,15.39999962
2022-12-15T05:56:46.586Z,19.89999962
2022-12-15T05:57:47.963Z,25.39999962
2022-12-15T05:58:48.557Z,28.89999962
2022-12-15T05:59:49.103Z,21
2022-12-15T06:00:49.630Z,17
2022-12-15T06:01:50.164Z,19.5
2022-12-15T06:02:50.694Z,21.20000076
2022-12-15T06:03:51.177Z,26.89999962
2022-12-15T06:04:52.672Z,26.29999924
2022-12-15T06:05:56.464Z,21.79999924
2022-12-15T06:06:53.861Z,52.40000153
2022-12-15T06:07:55.029Z,16.39999962
2022-12-15T06:08:55.551Z,47.5
2022-12-15T06:09:56.078Z,32.29999924
2022-12-15T06:10:56.774Z,24.39999962
2022-12-15T06:11:57.290Z,34.5
2022-12-15T06:12:57.910Z,27.29999924
2022-12-15T06:13:58.486Z,34.90000153
2022-12-15T06:15:00.007Z,34.90000153
2022-12-15T06:16:00.624Z,30.60000038
2022-12-15T06:17:01.169Z,59
2022-12-15T06:18:01.633Z,69.30000305
2022-12-15T06:19:02.618Z,14
2022-12-15T06:20:33.523Z,30.70000076
2022-12-15T06:21:33.972Z,22.10000038
2022-12-15T06:22:35.007Z,18.89999962
2022-12-15T06:23:35.653Z,38.79999924
2022-12-15T06:24:36.737Z,11.69999981
2022-12-15T06:25:37.349Z,29.89999962
2022-12-15T06:26:38.720Z,14.80000019
2022-12-15T06:27:39.390Z,14.10000038
2022-12-15T06:28:39.998Z,15.60000038
2022-12-15T06:29:40.597Z,13.80000019
2022-12-15T06:30:41.132Z,10
2022-12-15T06:31:41.689Z,13.80000019
2022-12-15T06:32:42.128Z,15
2022-12-15T06:33:42.638Z,12
2022-12-15T06:34:43.297Z,9.899999619
2022-12-15T06:35:43.806Z,10.89999962
2022-12-15T06:36:44.373Z,8.600000381
2022-12-15T06:37:44.911Z,14.39999962
2022-12-15T06:38:45.415Z,10.69999981
2022-12-15T06:39:45.973Z,10.10000038
2022-12-15T06:40:46.553Z,8.5
2022-12-15T06:41:47.078Z,8
2022-12-15T06:42:47.600Z,14.60000038
2022-12-15T06:43:48.102Z,16.60000038
2022-12-15T06:44:49.968Z,10.60000038
2022-12-15T06:45:50.169Z,12.30000019
2022-12-15T06:46:50.866Z,8.600000381
2022-12-15T06:47:54.256Z,10.5
2022-12-15T06:48:52.542Z,13.69999981
2022-12-15T06:49:53.057Z,11.19999981
2022-12-15T06:50:53.626Z,10.89999962
2022-12-15T06:51:54.151Z,11
2022-12-15T06:52:54.645Z,10.30000019
2022-12-15T06:53:55.387Z,10
2022-12-15T06:54:56.486Z,12.19999981
2022-12-15T06:55:57.008Z,11.69999981
2022-12-15T06:56:57.654Z,14.19999981
2022-12-15T06:57:58.210Z,11.30000019
2022-12-15T06:58:58.808Z,10.5
2022-12-15T06:59:59.472Z,10.5
2022-12-15T07:01:00.182Z,11.69999981
2022-12-15T07:02:00.967Z,10.39999962
2022-12-15T07:03:01.536Z,11.10000038
2022-12-15T07:04:33.201Z,11.19999981
2022-12-15T07:05:33.826Z,8.699999809
2022-12-15T07:06:34.396Z,11.10000038
2022-12-15T07:07:34.919Z,10.19999981
2022-12-15T07:08:41.392Z,9.899999619
2022-12-15T07:09:35.979Z,9.899999619
2022-12-15T07:10:36.629Z,8.300000191
2022-12-15T07:11:37.173Z,10.19999981
2022-12-15T07:12:37.720Z,10.5
2022-12-15T07:13:38.208Z,12.5
2022-12-15T07:14:39.798Z,12.60000038
2022-12-15T07:15:40.363Z,8.699999809
2022-12-15T07:16:41.015Z,9.5
2022-12-15T07:17:41.448Z,9.199999809
2022-12-15T07:18:42.055Z,7.900000095
2022-12-15T07:19:42.597Z,9.199999809
2022-12-15T07:20:43.153Z,9.199999809
2022-12-15T07:21:43.743Z,11
2022-12-15T07:22:44.540Z,8.699999809
2022-12-15T07:23:55.380Z,8.100000381
2022-12-15T07:24:46.315Z,8
2022-12-15T07:25:46.882Z,8.399999619
2022-12-15T07:26:48.918Z,8.399999619
2022-12-15T07:27:48.703Z,6.800000191
2022-12-15T07:28:49.789Z,6.900000095
2022-12-15T07:29:50.391Z,9.199999809
2022-12-15T07:30:50.987Z,7.599999905
2022-12-15T07:31:51.592Z,8.399999619
2022-12-15T07:32:52.519Z,9.199999809
2022-12-15T07:33:53.039Z,7
2022-12-15T07:34:54.288Z,7
2022-12-15T07:35:54.820Z,8.800000191
2022-12-15T07:36:55.366Z,7.699999809
2022-12-15T07:37:55.927Z,9.600000381
2022-12-15T07:38:56.449Z,7.400000095
2022-12-15T07:39:57.067Z,9
2022-12-15T07:40:57.644Z,8
2022-12-15T07:41:58.332Z,9.100000381
2022-12-15T07:42:58.820Z,8.100000381
2022-12-15T07:43:59.377Z,9.399999619
2022-12-15T07:45:00.705Z,11.10000038
2022-12-15T07:46:01.871Z,13.5
2022-12-15T07:47:32.687Z,15.60000038
2022-12-15T07:48:33.305Z,13.10000038
2022-12-15T07:49:33.764Z,10.89999962
2022-12-15T07:50:34.259Z,12.5
2022-12-15T07:51:34.880Z,11.30000019
2022-12-15T07:52:35.443Z,9.699999809
2022-12-15T07:53:36.087Z,9.699999809
2022-12-15T07:54:37.212Z,11.30000019
2022-12-15T07:56:05.766Z,11.19999981
2022-12-15T07:56:39.458Z,11.89999962
2022-12-15T07:57:39.664Z,12.39999962
2022-12-15T07:58:40.186Z,11.60000038
2022-12-15T07:59:40.727Z,12.30000019
2022-12-15T08:00:46.868Z,13.69999981
2022-12-15T08:01:42.104Z,16.70000076
2022-12-15T08:02:42.708Z,11.69999981
2022-12-15T08:03:43.071Z,13.30000019
2022-12-15T08:04:44.208Z,12.80000019
2022-12-15T08:05:45.702Z,15.80000019
2022-12-15T08:06:46.369Z,13.60000038
2022-12-15T08:07:46.923Z,14.60000038
2022-12-15T08:08:50.286Z,12.39999962
2022-12-15T08:09:47.991Z,16.20000076
2022-12-15T08:10:48.503Z,12.60000038
2022-12-15T08:11:49.129Z,12.80000019
2022-12-15T08:12:49.905Z,12.30000019
2022-12-15T08:14:04.378Z,14.60000038
2022-12-15T08:14:51.709Z,10.30000019
2022-12-15T08:15:52.780Z,14.39999962
2022-12-15T08:16:53.366Z,13.19999981
2022-12-15T08:17:53.882Z,13.5
2022-12-15T08:18:54.469Z,15.19999981
2022-12-15T08:19:58.771Z,15.5
2022-12-15T08:20:55.464Z,14.69999981
2022-12-15T08:21:56.038Z,12.80000019
2022-12-15T08:22:56.611Z,11.89999962
2022-12-15T08:23:57.218Z,13.80000019
2022-12-15T08:24:58.719Z,12.30000019
2022-12-15T08:25:59.208Z,13.19999981
2022-12-15T08:27:00.700Z,12.39999962
2022-12-15T08:28:31.648Z,15.69999981
2022-12-15T08:29:50.642Z,11.89999962
2022-12-15T08:30:32.751Z,13.60000038
2022-12-15T08:31:33.348Z,13.80000019
2022-12-15T08:32:33.774Z,14
2022-12-15T08:33:34.850Z,13
2022-12-15T08:34:34.858Z,14.19999981
2022-12-15T08:35:55.586Z,19.39999962
2022-12-15T08:36:36.950Z,16
2022-12-15T08:37:37.539Z,15.10000038
2022-12-15T08:38:38.038Z,18.5
2022-12-15T08:39:38.573Z,14.10000038
2022-12-15T08:40:39.138Z,15.30000019
2022-12-15T08:41:39.752Z,19.79999924
2022-12-15T08:42:40.341Z,12.5
2022-12-15T08:43:47.505Z,17.10000038
2022-12-15T08:44:41.440Z,20.60000038
2022-12-15T08:45:42.565Z,16
2022-12-15T08:46:43.024Z,18.39999962
2022-12-15T08:47:43.630Z,16.89999962
2022-12-15T08:48:44.181Z,14.89999962
2022-12-15T08:49:44.789Z,17.60000038
2022-12-15T08:50:45.306Z,14.5
2022-12-15T08:51:45.835Z,17.29999924
2022-12-15T08:53:06.542Z,25.29999924
2022-12-15T08:53:47.245Z,12.30000019
2022-12-15T08:54:47.541Z,15.89999962
2022-12-15T08:55:48.960Z,13.39999962
2022-12-15T08:56:49.542Z,14.5
2022-12-15T08:57:50.064Z,11.5
2022-12-15T08:58:50.715Z,15.30000019
2022-12-15T08:59:51.967Z,13.5
2022-12-15T09:00:52.654Z,17.79999924
2022-12-15T09:01:53.151Z,12.30000019
2022-12-15T09:02:53.590Z,15.10000038
2022-12-15T09:03:54.415Z,14.10000038
2022-12-15T09:04:54.791Z,16.89999962
2022-12-15T09:05:56.037Z,16.60000038
2022-12-15T09:06:56.600Z,19.39999962
2022-12-15T09:08:03.064Z,17
2022-12-15T09:08:58.611Z,12.10000038
2022-12-15T09:09:59.133Z,13.5
2022-12-15T09:10:59.830Z,15.80000019
2022-12-15T09:12:01.776Z,15.69999981
2022-12-15T09:13:32.816Z,21.5
2022-12-15T09:14:33.232Z,14.30000019
2022-12-15T09:16:35.474Z,23.20000076
2022-12-15T09:17:36.060Z,21.10000038
2022-12-15T09:18:36.550Z,19.29999924
2022-12-15T09:19:37.079Z,22
2022-12-15T09:20:37.619Z,17
2022-12-15T09:21:38.330Z,24.60000038
2022-12-15T09:22:38.902Z,20.5
2022-12-15T09:23:39.564Z,55.59999847
2022-12-15T09:24:40.149Z,24.20000076
2022-12-15T09:25:41.446Z,27
2022-12-15T09:26:42.777Z,19.29999924
2022-12-15T09:27:43.300Z,29.29999924
2022-12-15T09:28:43.899Z,25.60000038
2022-12-15T09:29:44.488Z,21.29999924
2022-12-15T09:30:44.952Z,28.39999962
2022-12-15T09:31:45.665Z,18.10000038
2022-12-15T09:32:46.237Z,27.5
2022-12-15T09:33:46.874Z,18.70000076
2022-12-15T09:34:47.498Z,26.39999962
2022-12-15T09:35:49.776Z,19.20000076
2022-12-15T09:36:50.380Z,19.60000038
2022-12-15T09:37:52.044Z,22.10000038
2022-12-15T09:38:51.659Z,35.79999924
2022-12-15T09:39:52.488Z,15.19999981
2022-12-15T09:40:53.029Z,18.70000076
2022-12-15T09:41:53.550Z,17.70000076
2022-12-15T09:43:04.852Z,19.5
2022-12-15T09:43:55.377Z,20.79999924
2022-12-15T09:44:55.322Z,23.5
2022-12-15T09:45:56.509Z,21.20000076
2022-12-15T09:46:57.139Z,17.70000076
2022-12-15T09:47:57.667Z,14.69999981
2022-12-15T09:48:58.393Z,18.39999962
2022-12-15T09:49:59.050Z,13.5
2022-12-15T09:50:59.536Z,22.39999962
2022-12-15T09:52:30.807Z,16.89999962
2022-12-15T09:53:54.063Z,11.80000019
2022-12-15T09:54:32.207Z,21
2022-12-15T09:55:33.862Z,16.29999924
2022-12-15T09:56:34.525Z,26.20000076
2022-12-15T09:57:35.714Z,18.20000076
2022-12-15T09:58:36.483Z,21
2022-12-15T09:59:37.091Z,15.5
2022-12-15T10:00:37.727Z,18.10000038
2022-12-15T10:01:38.328Z,19.10000038
2022-12-15T10:02:38.859Z,18
2022-12-15T10:03:39.994Z,15.60000038
2022-12-15T10:04:40.202Z,24.29999924
2022-12-15T10:06:14.236Z,22.70000076
2022-12-15T10:06:42.899Z,24.39999962
2022-12-15T10:07:44.490Z,22
2022-12-15T10:08:45.195Z,41.40000153
2022-12-15T10:09:46.002Z,25
2022-12-15T10:10:46.718Z,25.29999924
2022-12-15T10:11:50.303Z,16.89999962
2022-12-15T10:12:55.484Z,18.60000038
2022-12-15T10:13:50.345Z,19.60000038
2022-12-15T10:14:49.923Z,18.60000038
2022-12-15T10:15:50.970Z,16.39999962
2022-12-15T10:16:51.588Z,22.79999924
2022-12-15T10:17:52.482Z,19.5
2022-12-15T10:18:56.079Z,25.39999962
2022-12-15T10:19:53.920Z,18.79999924
2022-12-15T10:20:54.766Z,18.39999962
2022-12-15T10:21:55.458Z,26.89999962
2022-12-15T10:22:56.015Z,11.60000038
2022-12-15T10:23:56.870Z,20
2022-12-15T10:25:09.802Z,19.29999924
2022-12-15T10:25:59.113Z,12.5
2022-12-15T10:27:31.089Z,11.10000038
2022-12-15T10:28:31.650Z,14.60000038
2022-12-15T10:29:32.547Z,13.89999962
2022-12-15T10:30:33.191Z,18.29999924
2022-12-15T10:31:34.079Z,17.60000038
2022-12-15T10:32:42.384Z,13.80000019
2022-12-15T10:33:36.301Z,14.80000019
2022-12-15T10:34:36.899Z,13.10000038
2022-12-15T10:35:37.490Z,14.19999981
2022-12-15T10:36:39.540Z,16.60000038
2022-12-15T10:37:40.178Z,13.60000038
2022-12-15T10:38:40.769Z,10.60000038
2022-12-15T10:39:41.546Z,16.29999924
2022-12-15T10:40:42.115Z,12.10000038
2022-12-15T10:41:43.204Z,9.699999809
2022-12-15T10:42:43.825Z,17.10000038
2022-12-15T10:43:44.496Z,11.89999962
2022-12-15T10:44:45.201Z,10.80000019
2022-12-15T10:45:46.802Z,16.89999962
2022-12-15T10:46:48.298Z,14.19999981
2022-12-15T10:47:48.847Z,18.79999924
2022-12-15T10:48:49.612Z,15.89999962
2022-12-15T10:49:50.222Z,21.79999924
2022-12-15T10:50:50.956Z,17.5
2022-12-15T10:51:51.719Z,18.29999924
2022-12-15T10:52:52.529Z,15.30000019
2022-12-15T10:53:53.762Z,15.89999962
2022-12-15T10:54:54.008Z,20
2022-12-15T10:55:55.214Z,15.60000038
2022-12-15T10:56:55.993Z,20.10000038
2022-12-15T10:57:56.573Z,15.89999962
2022-12-15T10:58:57.380Z,15.60000038
2022-12-15T10:59:58.011Z,13.60000038
2022-12-15T11:00:58.564Z,20.20000076
2022-12-15T11:02:00.026Z,17.39999962
2022-12-15T11:03:31.471Z,25.20000076
2022-12-15T11:04:31.805Z,14.19999981
2022-12-15T11:05:32.277Z,18
2022-12-15T11:06:33.611Z,10.19999981
2022-12-15T11:07:34.270Z,10.5
2022-12-15T11:08:34.937Z,12
2022-12-15T11:09:35.747Z,11.5
2022-12-15T11:10:36.276Z,14.69999981
2022-12-15T11:11:36.956Z,18.10000038
2022-12-15T11:12:37.569Z,9.5
2022-12-15T11:13:38.943Z,17.5
2022-12-15T11:14:39.049Z,15.10000038
2022-12-15T11:15:39.840Z,14.19999981
2022-12-15T11:16:41.070Z,11.89999962
2022-12-15T11:17:41.737Z,12.89999962
2022-12-15T11:18:42.471Z,15.80000019
2022-12-15T11:19:43.085Z,27.29999924
2022-12-15T11:20:43.732Z,20.79999924
2022-12-15T11:21:44.288Z,22.79999924
2022-12-15T11:22:44.976Z,22.60000038
2022-12-15T11:23:48.792Z,18.39999962
2022-12-15T11:24:47.156Z,32.20000076
2022-12-15T11:25:47.856Z,29.70000076
2022-12-15T11:26:49.299Z,28.79999924
2022-12-15T11:27:49.882Z,23.70000076
2022-12-15T11:28:50.405Z,29.5
2022-12-15T11:29:51.333Z,25.39999962
2022-12-15T11:30:51.947Z,16.60000038
2022-12-15T11:31:53.173Z,21.79999924
2022-12-15T11:32:53.806Z,22.10000038
2022-12-15T11:33:54.340Z,37.79999924